createdAt,value
2023-04-17T00:00:09.695Z,84.60
2023-04-17T00:02:39.851Z,84.60
2023-04-17T00:05:10.237Z,84.60
2023-04-17T00:07:38.884Z,84.70
2023-04-17T00:10:07.828Z,85.40
2023-04-17T00:12:34.916Z,84.70
2023-04-17T00:15:01.682Z,84.90
2023-04-17T00:17:28.504Z,85.10
2023-04-17T00:19:55.243Z,85.10
2023-04-17T00:22:22.036Z,85.10
2023-04-17T00:24:48.794Z,85.00
2023-04-17T00:27:15.446Z,85.00
2023-04-17T00:29:42.528Z,85.90
2023-04-17T00:32:09.334Z,85.00
2023-04-17T00:34:36.526Z,84.70
2023-04-17T00:37:03.193Z,84.60
2023-04-17T00:39:29.853Z,84.60
2023-04-17T00:41:57.444Z,84.70
2023-04-17T00:44:24.545Z,84.60
2023-04-17T00:46:51.589Z,84.50
2023-04-17T00:49:18.347Z,85.10
2023-04-17T00:51:46.032Z,84.10
2023-04-17T00:54:12.702Z,84.50
2023-04-17T00:56:39.398Z,84.90
2023-04-17T00:59:06.511Z,85.40
2023-04-17T01:01:33.349Z,85.70
2023-04-17T01:04:01.812Z,85.90
2023-04-17T01:06:28.787Z,85.90
2023-04-17T01:08:55.580Z,85.60
2023-04-17T01:11:22.295Z,85.60
2023-04-17T01:13:49.752Z,85.70
2023-04-17T01:16:17.769Z,85.60
2023-04-17T01:18:46.070Z,86.50
2023-04-17T01:21:13.018Z,86.60
2023-04-17T01:23:48.637Z,85.90
2023-04-17T01:26:24.805Z,86.20
2023-04-17T01:28:56.183Z,86.30
2023-04-17T01:31:23.786Z,86.30
2023-04-17T01:33:50.949Z,86.20
2023-04-17T01:36:18.124Z,86.20
2023-04-17T01:38:44.789Z,86.30
2023-04-17T01:41:11.537Z,86.30
2023-04-17T01:43:39.285Z,86.00
2023-04-17T01:46:06.290Z,86.40
2023-04-17T01:48:33.579Z,85.80
2023-04-17T01:51:00.618Z,85.40
2023-04-17T01:53:27.553Z,85.30
2023-04-17T01:55:54.470Z,85.40
2023-04-17T01:58:21.197Z,85.30
2023-04-17T02:00:49.191Z,85.40
2023-04-17T02:03:17.931Z,85.20
2023-04-17T02:05:49.333Z,85.10
2023-04-17T02:08:16.185Z,85.00
2023-04-17T02:10:42.934Z,85.20
2023-04-17T02:13:09.898Z,85.40
2023-04-17T02:15:39.704Z,85.60
2023-04-17T02:18:06.749Z,85.70
2023-04-17T02:20:34.194Z,85.90
2023-04-17T02:23:01.155Z,85.70
2023-04-17T02:25:28.268Z,85.80
2023-04-17T02:27:56.128Z,85.90
2023-04-17T02:30:23.915Z,86.10
2023-04-17T02:32:54.567Z,86.00
2023-04-17T02:35:21.799Z,86.10
2023-04-17T02:37:48.716Z,86.20
2023-04-17T02:40:15.955Z,86.30
2023-04-17T02:42:42.808Z,86.30
2023-04-17T02:45:10.262Z,86.20
2023-04-17T02:47:37.333Z,86.00
2023-04-17T02:50:04.314Z,86.90
2023-04-17T02:52:31.725Z,86.30
2023-04-17T02:54:58.515Z,86.20
2023-04-17T02:57:25.411Z,86.20
2023-04-17T02:59:52.748Z,86.30
2023-04-17T03:02:23.068Z,86.40
2023-04-17T03:04:50.997Z,86.10
2023-04-17T03:07:18.756Z,85.70
2023-04-17T03:09:48.626Z,85.60
2023-04-17T03:12:15.525Z,85.70
2023-04-17T03:14:42.374Z,85.70
2023-04-17T03:17:09.736Z,85.70
2023-04-17T03:19:36.494Z,85.70
2023-04-17T03:22:03.560Z,85.50
2023-04-17T03:24:31.449Z,85.60
2023-04-17T03:26:58.774Z,86.30
2023-04-17T03:29:25.497Z,86.40
2023-04-17T03:31:53.011Z,86.90
2023-04-17T03:34:21.542Z,86.90
2023-04-17T03:36:48.461Z,87.00
2023-04-17T03:39:15.183Z,87.00
2023-04-17T03:41:41.946Z,87.00
2023-04-17T03:44:12.457Z,87.00
2023-04-17T03:46:39.225Z,87.10
2023-04-17T03:49:06.315Z,86.90
2023-04-17T03:51:33.045Z,88.00
2023-04-17T03:53:59.955Z,87.00
2023-04-17T03:56:27.144Z,87.00
2023-04-17T03:58:54.666Z,87.00
2023-04-17T04:01:22.341Z,86.80
2023-04-17T04:03:49.331Z,86.80
2023-04-17T04:06:20.194Z,86.10
2023-04-17T04:08:46.997Z,86.30
2023-04-17T04:11:13.897Z,86.90
2023-04-17T04:13:40.860Z,87.10
2023-04-17T04:16:08.110Z,87.00
2023-04-17T04:18:35.930Z,87.50
2023-04-17T04:21:02.611Z,87.20
2023-04-17T04:23:30.546Z,86.80
2023-04-17T04:25:58.043Z,86.50
2023-04-17T04:28:25.645Z,86.30
2023-04-17T04:30:53.624Z,86.40
2023-04-17T04:33:20.576Z,86.20
2023-04-17T04:35:51.804Z,86.30
2023-04-17T04:38:18.652Z,86.40
2023-04-17T04:40:49.940Z,86.10
2023-04-17T04:43:16.750Z,86.30
2023-04-17T04:45:43.846Z,86.50
2023-04-17T04:48:10.562Z,86.50
2023-04-17T04:50:37.230Z,86.60
2023-04-17T04:53:03.894Z,86.70
2023-04-17T04:55:30.698Z,86.90
2023-04-17T04:57:59.163Z,86.70
2023-04-17T05:00:27.417Z,86.90
2023-04-17T05:02:54.465Z,87.60
2023-04-17T05:05:21.777Z,86.80
2023-04-17T05:07:48.500Z,86.80
2023-04-17T05:10:15.617Z,86.70
2023-04-17T05:12:43.106Z,86.80
2023-04-17T05:15:10.400Z,86.70
2023-04-17T05:17:39.002Z,86.60
2023-04-17T05:20:06.991Z,87.10
2023-04-17T05:22:33.719Z,87.00
2023-04-17T05:25:00.566Z,86.40
2023-04-17T05:27:27.373Z,86.30
2023-04-17T05:29:54.296Z,86.30
2023-04-17T05:32:21.457Z,86.40
2023-04-17T05:34:48.227Z,86.00
2023-04-17T05:37:14.957Z,86.20
2023-04-17T05:39:41.708Z,86.30
2023-04-17T05:42:08.362Z,86.30
2023-04-17T05:44:35.085Z,86.30
2023-04-17T05:47:01.861Z,86.50
2023-04-17T05:49:29.950Z,87.00
2023-04-17T05:51:56.796Z,86.60
2023-04-17T05:54:23.503Z,86.90
2023-04-17T05:56:50.217Z,87.50
2023-04-17T05:59:17.133Z,87.40
2023-04-17T06:01:43.912Z,87.50
2023-04-17T06:04:11.575Z,87.70
2023-04-17T06:06:38.436Z,88.20
2023-04-17T06:09:07.193Z,87.70
2023-04-17T06:11:34.102Z,88.00
2023-04-17T06:14:01.759Z,88.80
2023-04-17T06:16:29.683Z,88.10
2023-04-17T06:18:56.501Z,89.30
2023-04-17T06:21:23.214Z,88.20
2023-04-17T06:23:49.988Z,88.20
2023-04-17T06:26:16.745Z,88.40
2023-04-17T06:28:43.728Z,87.50
2023-04-17T06:31:11.270Z,87.70
2023-04-17T06:33:38.465Z,87.10
2023-04-17T06:36:05.688Z,92.90
2023-04-17T06:38:32.841Z,90.40
2023-04-17T06:41:00.943Z,89.30
2023-04-17T06:43:29.133Z,89.40
2023-04-17T06:45:56.363Z,92.60
2023-04-17T06:48:23.445Z,93.40
2023-04-17T06:50:50.527Z,92.90
2023-04-17T06:53:17.489Z,91.60
2023-04-17T06:55:45.305Z,91.10
2023-04-17T06:58:12.338Z,90.50
2023-04-17T07:00:39.077Z,89.60
2023-04-17T07:03:06.377Z,89.10
2023-04-17T07:05:33.439Z,89.00
2023-04-17T07:08:03.547Z,89.00
2023-04-17T07:10:32.090Z,88.80
2023-04-17T07:13:00.204Z,88.80
2023-04-17T07:15:31.168Z,90.20
2023-04-17T07:17:57.981Z,92.10
2023-04-17T07:20:24.813Z,90.20
2023-04-17T07:22:51.622Z,89.20
2023-04-17T07:25:19.860Z,88.10
2023-04-17T07:27:46.658Z,87.60
2023-04-17T07:30:13.907Z,88.40
2023-04-17T07:32:40.657Z,88.60
2023-04-17T07:35:07.844Z,88.30
2023-04-17T07:37:34.879Z,88.40
2023-04-17T07:40:02.421Z,89.60
2023-04-17T07:42:29.331Z,89.60
2023-04-17T07:44:57.314Z,88.20
2023-04-17T07:47:24.410Z,88.00
2023-04-17T07:49:51.397Z,88.00
2023-04-17T07:52:18.251Z,87.80
2023-04-17T07:54:45.093Z,86.80
2023-04-17T07:57:11.891Z,86.70
2023-04-17T07:59:38.700Z,86.10
2023-04-17T08:02:05.866Z,86.20
2023-04-17T08:04:33.433Z,85.90
2023-04-17T08:07:01.711Z,85.30
2023-04-17T08:09:28.718Z,85.30
2023-04-17T08:11:57.494Z,84.70
2023-04-17T08:14:25.083Z,84.40
2023-04-17T08:16:52.097Z,84.70
2023-04-17T08:19:19.081Z,85.00
2023-04-17T08:21:49.202Z,86.80
2023-04-17T08:24:18.716Z,88.60
2023-04-17T08:26:46.363Z,88.90
2023-04-17T08:29:13.869Z,89.00
2023-04-17T08:31:41.260Z,89.50
2023-04-17T08:34:14.212Z,90.20
2023-04-17T08:36:41.901Z,89.30
2023-04-17T08:39:10.174Z,88.10
2023-04-17T08:41:42.976Z,90.10
2023-04-17T08:44:09.732Z,90.20
2023-04-17T08:46:36.545Z,90.40
2023-04-17T08:49:03.395Z,88.60
2023-04-17T08:51:31.351Z,90.20
2023-04-17T08:53:58.037Z,89.80
2023-04-17T08:56:24.800Z,89.50
2023-04-17T08:58:51.475Z,90.50
2023-04-17T09:01:20.458Z,90.50
2023-04-17T09:03:48.134Z,90.20
2023-04-17T09:06:15.396Z,90.80
2023-04-17T09:08:55.942Z,90.60
2023-04-17T09:11:22.665Z,90.90
2023-04-17T09:13:49.491Z,90.70
2023-04-17T09:16:16.500Z,90.20
2023-04-17T09:18:43.473Z,90.20
2023-04-17T09:21:10.251Z,90.30
2023-04-17T09:24:07.475Z,90.00
2023-04-17T09:26:34.196Z,89.20
2023-04-17T09:29:12.324Z,89.40
2023-04-17T09:31:43.137Z,90.00
2023-04-17T09:34:12.051Z,87.70
2023-04-17T09:36:40.035Z,87.70
2023-04-17T09:39:20.711Z,87.80
2023-04-17T09:41:47.762Z,87.80
2023-04-17T09:44:36.850Z,87.90
2023-04-17T09:47:04.499Z,88.20
2023-04-17T09:49:42.624Z,87.60
2023-04-17T09:52:09.476Z,87.70
2023-04-17T09:54:37.870Z,88.20
2023-04-17T09:57:08.277Z,88.10
2023-04-17T09:59:41.613Z,88.60
2023-04-17T10:02:09.647Z,88.20
2023-04-17T10:04:36.762Z,88.30
2023-04-17T10:07:04.503Z,88.10
2023-04-17T10:09:32.438Z,88.10
2023-04-17T10:11:59.239Z,87.80
2023-04-17T10:14:27.885Z,87.50
2023-04-17T10:16:54.786Z,87.50
2023-04-17T10:19:32.075Z,90.30
2023-04-17T10:22:19.202Z,89.50
2023-04-17T10:24:52.049Z,90.50
2023-04-17T10:27:27.614Z,90.60
2023-04-17T10:29:55.545Z,90.60
2023-04-17T10:32:26.289Z,90.40
2023-04-17T10:34:54.002Z,90.30
2023-04-17T10:37:22.894Z,90.10
2023-04-17T10:40:00.496Z,90.20
2023-04-17T10:42:29.475Z,88.90
2023-04-17T10:44:58.878Z,89.10
2023-04-17T10:47:35.377Z,88.30
2023-04-17T10:50:04.021Z,88.20
2023-04-17T10:52:34.564Z,89.40
2023-04-17T10:55:08.309Z,89.40
2023-04-17T10:57:54.000Z,88.00
2023-04-17T11:00:21.769Z,87.40
2023-04-17T11:02:50.481Z,88.40
2023-04-17T11:05:18.259Z,88.30
2023-04-17T11:07:50.271Z,87.30
2023-04-17T11:10:18.434Z,87.10
2023-04-17T11:12:53.310Z,87.00
2023-04-17T11:15:30.789Z,88.00
2023-04-17T11:17:58.126Z,87.30
2023-04-17T11:20:26.093Z,87.90
2023-04-17T11:22:53.063Z,86.90
2023-04-17T11:25:21.096Z,86.50
2023-04-17T11:27:51.050Z,86.30
2023-04-17T11:30:28.241Z,85.90
2023-04-17T11:32:56.962Z,85.80
2023-04-17T11:35:27.666Z,85.80
2023-04-17T11:38:17.814Z,85.70
2023-04-17T11:40:56.130Z,85.70
2023-04-17T11:43:23.353Z,85.50
2023-04-17T11:45:54.382Z,85.40
2023-04-17T11:48:22.975Z,85.40
2023-04-17T11:50:49.750Z,85.40
2023-04-17T11:53:16.892Z,85.30
2023-04-17T11:55:44.329Z,85.20
2023-04-17T11:58:12.122Z,85.20
2023-04-17T12:00:40.594Z,85.00
2023-04-17T12:03:45.307Z,84.80
2023-04-17T12:06:13.195Z,84.70
2023-04-17T12:08:52.045Z,84.70
2023-04-17T12:11:29.631Z,84.60
2023-04-17T12:13:56.652Z,84.50
2023-04-17T12:16:26.802Z,84.30
2023-04-17T12:18:53.956Z,84.20
2023-04-17T12:21:20.860Z,83.70
2023-04-17T12:23:47.852Z,83.70
2023-04-17T12:26:14.577Z,83.60
2023-04-17T12:28:41.280Z,83.50
2023-04-17T12:31:07.995Z,83.50
2023-04-17T12:33:36.530Z,83.50
2023-04-17T12:36:05.295Z,83.50
2023-04-17T12:38:32.230Z,83.60
2023-04-17T12:40:58.960Z,83.90
2023-04-17T12:43:25.773Z,83.80
2023-04-17T12:45:52.802Z,84.80
2023-04-17T12:48:20.710Z,84.30
2023-04-17T12:50:47.372Z,88.20
2023-04-17T12:53:14.814Z,88.30
2023-04-17T12:55:43.493Z,86.90
2023-04-17T12:58:11.569Z,85.90
2023-04-17T13:00:39.178Z,86.30
2023-04-17T13:03:07.703Z,86.00
2023-04-17T13:05:35.358Z,86.00
2023-04-17T13:08:02.080Z,87.60
2023-04-17T13:10:29.385Z,92.00
2023-04-17T13:12:56.306Z,89.20
2023-04-17T13:15:23.293Z,88.80
2023-04-17T13:17:50.044Z,88.00
2023-04-17T13:20:16.803Z,88.00
2023-04-17T13:22:43.541Z,88.80
2023-04-17T13:25:10.356Z,89.50
2023-04-17T13:27:37.694Z,90.10
2023-04-17T13:30:05.953Z,90.30
2023-04-17T13:32:36.400Z,90.40
2023-04-17T13:35:05.501Z,90.50
2023-04-17T13:37:32.656Z,90.90
2023-04-17T13:39:59.804Z,90.80
2023-04-17T13:42:26.957Z,90.80
2023-04-17T13:44:53.674Z,90.70
2023-04-17T13:47:20.722Z,90.50
2023-04-17T13:49:47.501Z,90.60
2023-04-17T13:52:14.436Z,90.30
2023-04-17T13:54:41.693Z,90.50
2023-04-17T13:57:09.573Z,90.60
2023-04-17T13:59:37.595Z,90.20
2023-04-17T14:02:05.864Z,90.50
2023-04-17T14:04:32.843Z,90.60
2023-04-17T14:06:59.755Z,90.30
2023-04-17T14:09:26.522Z,90.00
2023-04-17T14:11:53.471Z,89.80
2023-04-17T14:14:20.303Z,89.60
2023-04-17T14:16:48.815Z,89.30
2023-04-17T14:19:15.755Z,88.90
2023-04-17T14:21:42.826Z,88.60
2023-04-17T14:24:09.805Z,88.70
2023-04-17T14:26:38.206Z,88.10
2023-04-17T14:29:06.310Z,88.20
2023-04-17T14:31:33.184Z,87.70
2023-04-17T14:33:59.978Z,87.60
2023-04-17T14:36:26.680Z,87.50
2023-04-17T14:38:54.377Z,87.30
2023-04-17T14:41:21.191Z,87.00
2023-04-17T14:43:47.952Z,86.80
2023-04-17T14:46:14.914Z,86.80
2023-04-17T14:51:15.271Z,86.00
2023-04-17T14:53:42.078Z,86.00
2023-04-17T14:56:09.293Z,85.90
2023-04-17T14:58:37.575Z,86.70
2023-04-17T15:01:06.220Z,87.20
2023-04-17T15:03:33.227Z,87.90
2023-04-17T15:06:02.468Z,87.70
2023-04-17T15:08:31.110Z,88.30
2023-04-17T15:10:58.716Z,88.30
2023-04-17T15:13:25.897Z,88.40
2023-04-17T15:15:52.933Z,88.00
2023-04-17T15:18:19.923Z,87.40
2023-04-17T15:20:47.149Z,87.80
2023-04-17T15:23:14.143Z,87.50
2023-04-17T15:25:41.633Z,87.00
2023-04-17T15:28:09.022Z,86.90
2023-04-17T15:30:37.349Z,87.00
2023-04-17T15:33:07.173Z,86.40
2023-04-17T15:35:37.375Z,86.00
2023-04-17T15:38:07.260Z,85.30
2023-04-17T15:40:34.004Z,85.30
2023-04-17T15:43:01.096Z,85.10
2023-04-17T15:45:27.917Z,85.10
2023-04-17T15:47:54.764Z,84.90
2023-04-17T15:50:21.684Z,84.90
2023-04-17T15:52:48.453Z,84.30
2023-04-17T15:55:15.818Z,84.20
2023-04-17T15:57:43.379Z,84.20
2023-04-17T16:00:10.704Z,84.20
2023-04-17T16:02:38.360Z,84.50
2023-04-17T16:05:07.129Z,84.30
2023-04-17T16:07:33.853Z,84.10
2023-04-17T16:10:00.576Z,83.50
2023-04-17T16:12:28.269Z,83.40
2023-04-17T16:14:54.998Z,83.30
2023-04-17T16:17:21.783Z,83.10
2023-04-17T16:19:51.092Z,83.10
2023-04-17T16:22:18.802Z,84.10
2023-04-17T16:24:45.946Z,88.10
2023-04-17T16:27:12.740Z,86.80
2023-04-17T16:29:39.427Z,85.10
2023-04-17T16:32:07.684Z,86.00
2023-04-17T16:34:34.452Z,86.60
2023-04-17T16:37:03.280Z,85.80
2023-04-17T16:39:30.040Z,85.00
2023-04-17T16:41:57.703Z,84.80
2023-04-17T16:44:27.524Z,84.50
2023-04-17T16:49:25.215Z,84.00
2023-04-17T16:51:51.921Z,83.90
2023-04-17T16:54:20.533Z,84.10
2023-04-17T16:56:50.109Z,84.30
2023-04-17T16:59:16.890Z,85.30
2023-04-17T17:01:43.679Z,83.90
2023-04-17T17:04:10.531Z,83.40
2023-04-17T17:06:37.854Z,83.20
2023-04-17T17:09:04.742Z,83.50
2023-04-17T17:11:32.114Z,83.00
2023-04-17T17:13:58.867Z,82.60
2023-04-17T17:16:25.693Z,82.90
2023-04-17T17:18:52.516Z,84.10
2023-04-17T17:21:19.502Z,83.30
2023-04-17T17:23:46.275Z,82.70
2023-04-17T17:26:13.068Z,82.80
2023-04-17T17:28:39.735Z,82.90
2023-04-17T17:31:08.364Z,83.00
2023-04-17T17:33:36.372Z,83.10
2023-04-17T17:36:03.202Z,82.90
2023-04-17T17:38:32.300Z,83.80
2023-04-17T17:40:59.127Z,83.60
2023-04-17T17:43:26.917Z,83.10
2023-04-17T17:45:53.737Z,83.00
2023-04-17T17:48:20.806Z,82.90
2023-04-17T17:50:47.619Z,83.80
2023-04-17T17:53:16.925Z,83.50
2023-04-17T17:55:47.851Z,83.50
2023-04-17T17:58:14.609Z,83.10
2023-04-17T18:00:41.315Z,83.00
2023-04-17T18:03:08.268Z,83.00
2023-04-17T18:05:36.675Z,83.40
2023-04-17T18:08:03.361Z,84.20
2023-04-17T18:10:30.152Z,83.70
2023-04-17T18:12:56.993Z,84.10
2023-04-17T18:15:23.670Z,84.50
2023-04-17T18:17:50.539Z,83.60
2023-04-17T18:20:17.361Z,82.90
2023-04-17T18:22:44.210Z,83.00
2023-04-17T18:25:11.225Z,82.80
2023-04-17T18:27:38.112Z,82.60
2023-04-17T18:30:07.524Z,83.20
2023-04-17T18:32:34.779Z,83.70
2023-04-17T18:35:02.105Z,83.50
2023-04-17T18:37:28.950Z,82.80
2023-04-17T18:39:55.629Z,84.10
2023-04-17T18:42:22.307Z,83.00
2023-04-17T18:44:49.817Z,83.10
2023-04-17T18:47:16.757Z,84.00
2023-04-17T18:49:43.550Z,84.00
2023-04-17T18:52:10.205Z,90.30
2023-04-17T18:54:37.589Z,84.90
2023-04-17T18:57:04.524Z,87.90
2023-04-17T18:59:31.907Z,89.60
2023-04-17T19:01:58.689Z,89.90
2023-04-17T19:04:26.013Z,87.40
2023-04-17T19:06:52.941Z,86.80
2023-04-17T19:09:19.755Z,86.20
2023-04-17T19:11:46.743Z,86.50
2023-04-17T19:14:13.624Z,86.50
2023-04-17T19:16:47.143Z,85.70
2023-04-17T19:19:15.431Z,85.30
2023-04-17T19:21:42.375Z,85.60
2023-04-17T19:24:09.151Z,87.00
2023-04-17T19:26:37.354Z,87.00
2023-04-17T19:29:05.939Z,86.90
2023-04-17T19:31:33.031Z,88.00
2023-04-17T19:34:00.336Z,87.60
2023-04-17T19:36:28.126Z,87.40
2023-04-17T19:38:55.858Z,87.10
2023-04-17T19:41:22.661Z,87.10
2023-04-17T19:43:51.130Z,88.30
2023-04-17T19:46:18.717Z,87.50
2023-04-17T19:48:45.789Z,87.10
2023-04-17T19:51:13.106Z,87.50
2023-04-17T19:53:40.899Z,87.60
2023-04-17T19:56:08.850Z,87.10
2023-04-17T19:58:36.155Z,87.70
2023-04-17T20:01:03.391Z,86.60
2023-04-17T20:03:30.551Z,86.40
2023-04-17T20:05:57.986Z,86.20
2023-04-17T20:08:25.617Z,85.80
2023-04-17T20:10:52.459Z,85.60
2023-04-17T20:13:21.489Z,85.80
2023-04-17T20:15:48.418Z,85.20
2023-04-17T20:18:15.250Z,85.20
2023-04-17T20:20:41.987Z,85.20
2023-04-17T20:23:08.913Z,86.40
2023-04-17T20:25:36.497Z,85.40
2023-04-17T20:28:03.233Z,85.40
2023-04-17T20:30:30.464Z,85.10
2023-04-17T20:32:57.335Z,85.60
2023-04-17T20:35:24.792Z,85.80
2023-04-17T20:37:51.874Z,85.80
2023-04-17T20:40:19.008Z,85.20
2023-04-17T20:42:46.385Z,85.10
2023-04-17T20:45:13.364Z,85.40
2023-04-17T20:47:54.975Z,85.80
2023-04-17T20:50:23.106Z,85.40
2023-04-17T20:52:49.843Z,85.70
2023-04-17T20:55:19.981Z,85.60
2023-04-17T20:57:47.097Z,90.10
2023-04-17T21:00:14.470Z,90.20
2023-04-17T21:02:41.327Z,90.20
2023-04-17T21:05:09.532Z,89.60
2023-04-17T21:07:37.639Z,89.20
2023-04-17T21:10:05.199Z,89.00
2023-04-17T21:12:32.982Z,88.00
2023-04-17T21:15:00.001Z,87.70
2023-04-17T21:17:26.722Z,87.00
2023-04-17T21:19:55.770Z,86.50
2023-04-17T21:22:22.489Z,86.10
2023-04-17T21:24:49.218Z,86.10
2023-04-17T21:27:16.267Z,86.10
2023-04-17T21:29:42.996Z,85.80
2023-04-17T21:32:10.549Z,86.20
2023-04-17T21:34:37.308Z,86.30
2023-04-17T21:37:04.916Z,86.30
2023-04-17T21:39:33.252Z,87.30
2023-04-17T21:42:00.597Z,86.50
2023-04-17T21:44:27.444Z,86.40
2023-04-17T21:46:54.175Z,86.50
2023-04-17T21:49:21.336Z,86.40
2023-04-17T21:51:48.063Z,86.50
2023-04-17T21:54:15.218Z,87.50
2023-04-17T21:56:42.527Z,87.10
2023-04-17T21:59:13.980Z,87.20
2023-04-17T22:01:42.257Z,87.20
2023-04-17T22:04:09.256Z,88.30
2023-04-17T22:06:36.996Z,88.90
2023-04-17T22:09:04.750Z,89.00
2023-04-17T22:11:31.457Z,90.20
2023-04-17T22:13:58.254Z,90.70
2023-04-17T22:16:24.963Z,90.50
2023-04-17T22:18:51.670Z,89.90
2023-04-17T22:21:18.460Z,89.50
2023-04-17T22:23:45.219Z,89.60
2023-04-17T22:26:13.482Z,90.20
2023-04-17T22:28:40.698Z,89.50
2023-04-17T22:31:09.852Z,89.50
2023-04-17T22:33:36.825Z,90.10
2023-04-17T22:36:03.693Z,90.00
2023-04-17T22:38:30.385Z,90.00
2023-04-17T22:40:57.047Z,90.00
2023-04-17T22:43:23.749Z,90.00
2023-04-17T22:45:50.533Z,90.10
2023-04-17T22:48:18.276Z,89.90
2023-04-17T22:50:45.588Z,90.00
2023-04-17T22:53:12.906Z,90.00
2023-04-17T22:55:40.212Z,90.30
2023-04-17T22:58:06.948Z,90.20
2023-04-17T23:00:33.702Z,90.10
2023-04-17T23:03:00.408Z,90.10
2023-04-17T23:05:27.091Z,90.10
2023-04-17T23:07:53.850Z,90.10
2023-04-17T23:10:20.845Z,90.10
2023-04-17T23:12:47.584Z,90.10
2023-04-17T23:15:15.729Z,90.20
2023-04-17T23:17:42.460Z,90.40
2023-04-17T23:20:09.491Z,90.40
2023-04-17T23:22:36.573Z,90.50
2023-04-17T23:25:03.818Z,90.50
2023-04-17T23:27:31.528Z,90.60
2023-04-17T23:29:59.422Z,90.60
2023-04-17T23:32:26.353Z,90.60
2023-04-17T23:34:53.089Z,90.70
2023-04-17T23:37:19.863Z,90.70
2023-04-17T23:39:47.487Z,90.60
2023-04-17T23:42:14.224Z,90.50
2023-04-17T23:44:40.926Z,90.70
2023-04-17T23:47:07.699Z,90.60
2023-04-17T23:49:35.967Z,90.60
2023-04-17T23:52:02.671Z,90.60
2023-04-17T23:54:29.340Z,91.00
2023-04-17T23:56:56.497Z,90.90
2023-04-17T23:59:23.327Z,90.70
